createdAt,value
2022-12-20T00:01:28.420Z,10.55
2022-12-20T00:03:57.642Z,11.23
2022-12-20T00:06:25.873Z,10.10
2022-12-20T00:08:57.924Z,10.77
2022-12-20T00:11:25.873Z,9.82
2022-12-20T00:13:53.195Z,11.13
2022-12-20T00:16:22.817Z,10.38
2022-12-20T00:18:55.038Z,10.48
2022-12-20T00:21:22.889Z,10.88
2022-12-20T00:23:49.968Z,10.35
2022-12-20T00:26:19.549Z,10.18
2022-12-20T00:28:46.707Z,10.45
2022-12-20T00:31:16.254Z,10.75
2022-12-20T00:33:47.360Z,10.05
2022-12-20T00:36:15.186Z,10.30
2022-12-20T00:38:44.687Z,10.48
2022-12-20T00:41:17.505Z,9.48
2022-12-20T00:43:44.899Z,9.85
2022-12-20T00:46:13.813Z,9.75
2022-12-20T00:48:41.333Z,10.98
2022-12-20T00:51:13.532Z,9.98
2022-12-20T00:53:40.960Z,11.02
2022-12-20T00:56:08.710Z,9.98
2022-12-20T00:58:38.208Z,11.02
2022-12-20T01:01:07.449Z,10.45
2022-12-20T01:03:34.668Z,9.68
2022-12-20T01:06:03.122Z,10.02
2022-12-20T01:08:31.377Z,9.88
2022-12-20T01:11:03.878Z,9.98
2022-12-20T01:13:31.635Z,10.40
2022-12-20T01:16:05.626Z,11.48
2022-12-20T01:18:32.537Z,11.05
2022-12-20T01:21:04.888Z,10.38
2022-12-20T01:23:32.045Z,10.50
2022-12-20T01:26:01.797Z,10.60
2022-12-20T01:28:30.605Z,9.73
2022-12-20T01:30:58.073Z,10.93
2022-12-20T01:33:24.873Z,9.88
2022-12-20T01:36:00.132Z,9.20
2022-12-20T01:38:28.074Z,9.60
2022-12-20T01:40:57.547Z,9.60
2022-12-20T01:43:25.907Z,11.43
2022-12-20T01:45:53.055Z,10.95
2022-12-20T01:48:26.589Z,9.32
2022-12-20T01:50:53.828Z,9.70
2022-12-20T01:53:23.561Z,8.88
2022-12-20T01:55:50.912Z,9.23
2022-12-20T01:58:19.969Z,10.55
2022-12-20T02:00:47.850Z,10.00
2022-12-20T02:03:15.515Z,9.23
2022-12-20T02:05:48.308Z,8.95
2022-12-20T02:08:18.536Z,10.18
2022-12-20T02:11:09.681Z,9.23
2022-12-20T02:13:48.561Z,9.98
2022-12-20T02:16:23.215Z,11.27
2022-12-20T02:18:59.899Z,8.95
2022-12-20T02:21:55.383Z,8.63
2022-12-20T02:24:40.211Z,8.88
2022-12-20T02:27:22.931Z,9.45
2022-12-20T02:30:10.767Z,10.15
2022-12-20T02:32:44.863Z,9.73
2022-12-20T02:35:15.092Z,9.50
2022-12-20T02:37:57.403Z,10.10
2022-12-20T02:40:28.173Z,8.63
2022-12-20T02:43:05.063Z,9.57
2022-12-20T02:45:36.025Z,9.90
2022-12-20T02:48:10.477Z,10.77
2022-12-20T02:50:50.250Z,9.00
2022-12-20T02:53:18.201Z,9.82
2022-12-20T02:55:54.784Z,9.50
2022-12-20T02:58:36.279Z,9.73
2022-12-20T03:01:09.490Z,8.70
2022-12-20T03:03:37.825Z,9.10
2022-12-20T03:06:04.858Z,9.27
2022-12-20T03:08:31.684Z,8.80
2022-12-20T03:10:58.630Z,9.27
2022-12-20T03:26:30.220Z,7.65
2022-12-20T03:29:00.117Z,8.82
2022-12-20T03:31:28.485Z,8.52
2022-12-20T03:33:55.972Z,9.50
2022-12-20T03:36:24.100Z,8.90
2022-12-20T03:39:00.193Z,9.13
2022-12-20T03:41:30.524Z,9.35
2022-12-20T03:43:57.555Z,9.40
2022-12-20T03:46:25.887Z,9.27
2022-12-20T03:48:53.448Z,8.85
2022-12-20T03:51:20.441Z,8.38
2022-12-20T03:53:47.458Z,8.73
2022-12-20T03:56:15.290Z,9.07
2022-12-20T03:58:43.656Z,7.60
2022-12-20T04:01:19.095Z,9.75
2022-12-20T04:03:46.629Z,10.23
2022-12-20T04:06:13.636Z,9.90
2022-12-20T04:08:40.497Z,9.05
2022-12-20T04:11:17.557Z,9.95
2022-12-20T04:13:54.186Z,8.80
2022-12-20T04:16:24.795Z,8.65
2022-12-20T04:18:54.228Z,10.00
2022-12-20T04:21:39.309Z,9.82
2022-12-20T04:24:07.547Z,9.38
2022-12-20T04:26:43.395Z,10.18
2022-12-20T04:29:11.891Z,9.60
2022-12-20T04:31:41.032Z,8.85
2022-12-20T04:34:08.298Z,10.50
2022-12-20T04:36:35.474Z,9.38
2022-12-20T04:39:05.698Z,10.57
2022-12-20T04:41:42.771Z,10.07
2022-12-20T04:44:12.601Z,9.13
2022-12-20T04:46:39.562Z,10.13
2022-12-20T04:49:11.515Z,9.25
2022-12-20T04:51:41.729Z,10.20
2022-12-20T04:54:11.178Z,9.95
2022-12-20T04:56:43.649Z,10.07
2022-12-20T04:59:14.991Z,10.63
2022-12-20T05:01:44.844Z,9.95
2022-12-20T05:04:16.370Z,9.63
2022-12-20T05:06:43.349Z,10.43
2022-12-20T05:09:10.667Z,10.77
2022-12-20T05:11:37.627Z,9.48
2022-12-20T05:14:08.092Z,10.98
2022-12-20T05:16:35.700Z,10.93
2022-12-20T05:19:04.762Z,10.45
2022-12-20T05:24:41.171Z,10.50
2022-12-20T05:27:27.113Z,9.20
2022-12-20T05:29:54.555Z,9.27
2022-12-20T05:32:21.482Z,9.90
2022-12-20T05:34:48.813Z,9.20
2022-12-20T05:37:17.217Z,10.93
2022-12-20T05:39:44.929Z,11.30
2022-12-20T05:42:17.498Z,10.77
2022-12-20T05:44:44.920Z,11.27
2022-12-20T05:47:12.236Z,11.25
2022-12-20T05:49:39.703Z,11.30
2022-12-20T05:52:09.595Z,9.55
2022-12-20T05:54:38.160Z,9.82
2022-12-20T05:57:09.958Z,12.55
2022-12-20T05:59:41.329Z,11.65
2022-12-20T06:02:20.037Z,10.40
2022-12-20T06:04:50.914Z,11.02
2022-12-20T06:07:21.547Z,10.82
2022-12-20T06:09:52.381Z,11.07
2022-12-20T06:12:24.169Z,9.70
2022-12-20T06:14:52.055Z,9.40
2022-12-20T06:17:21.951Z,10.35
2022-12-20T06:19:52.265Z,10.50
2022-12-20T06:22:19.207Z,11.30
2022-12-20T06:24:50.615Z,10.75
2022-12-20T06:27:23.085Z,10.35
2022-12-20T06:29:58.991Z,13.10
2022-12-20T06:32:32.544Z,12.23
2022-12-20T06:34:59.501Z,10.63
2022-12-20T06:37:26.487Z,11.13
2022-12-20T06:39:53.434Z,11.40
2022-12-20T06:42:21.029Z,11.68
2022-12-20T06:44:48.196Z,10.77
2022-12-20T06:47:15.280Z,10.05
2022-12-20T06:49:42.479Z,11.18
2022-12-20T06:52:17.426Z,12.10
2022-12-20T06:54:50.079Z,10.43
2022-12-20T06:57:17.038Z,13.15
2022-12-20T06:59:47.159Z,10.43
2022-12-20T07:02:14.323Z,10.35
2022-12-20T07:04:41.404Z,9.63
2022-12-20T07:07:08.535Z,11.32
2022-12-20T07:09:35.724Z,7.68
2022-12-20T07:12:02.511Z,8.95
2022-12-20T07:14:29.403Z,8.82
2022-12-20T07:16:56.376Z,8.02
2022-12-20T07:19:23.261Z,7.70
2022-12-20T07:21:50.107Z,8.40
2022-12-20T07:24:16.964Z,7.85
2022-12-20T07:26:46.862Z,8.02
2022-12-20T07:29:15.996Z,8.98
2022-12-20T07:31:43.270Z,8.90
2022-12-20T07:34:11.315Z,7.78
2022-12-20T07:36:38.653Z,8.05
2022-12-20T07:39:06.033Z,7.63
2022-12-20T07:41:32.994Z,7.68
2022-12-20T07:44:00.153Z,8.38
2022-12-20T07:46:28.348Z,7.53
2022-12-20T07:48:55.432Z,7.47
2022-12-20T07:51:26.730Z,8.60
2022-12-20T07:54:05.181Z,8.82
2022-12-20T07:56:39.216Z,9.38
2022-12-20T07:59:09.641Z,7.97
2022-12-20T08:01:36.704Z,9.57
2022-12-20T08:04:08.485Z,11.70
2022-12-20T08:06:37.833Z,11.30
2022-12-20T08:09:06.257Z,13.15
2022-12-20T08:11:36.812Z,12.43
2022-12-20T08:14:06.394Z,10.52
2022-12-20T08:16:33.654Z,12.90
2022-12-20T08:19:00.975Z,10.52
2022-12-20T08:21:27.888Z,11.13
2022-12-20T08:23:54.911Z,10.27
2022-12-20T08:26:21.729Z,8.98
2022-12-20T08:28:48.623Z,8.25
2022-12-20T08:31:15.573Z,9.23
2022-12-20T08:33:42.657Z,9.77
2022-12-20T08:36:13.476Z,8.32
2022-12-20T08:38:41.123Z,10.07
2022-12-20T08:41:13.693Z,7.75
2022-12-20T08:43:41.580Z,8.20
2022-12-20T08:46:10.071Z,7.55
2022-12-20T08:48:37.159Z,7.43
2022-12-20T08:51:10.477Z,7.47
2022-12-20T08:53:38.058Z,6.83
2022-12-20T08:56:16.099Z,7.72
2022-12-20T08:58:44.637Z,6.30
2022-12-20T09:01:15.152Z,5.78
2022-12-20T09:03:43.053Z,5.57
2022-12-20T09:06:13.381Z,6.43
2022-12-20T09:08:41.038Z,5.82
2022-12-20T09:11:23.628Z,5.32
2022-12-20T09:13:54.389Z,5.70
2022-12-20T09:16:24.218Z,5.72
2022-12-20T09:18:52.764Z,9.52
2022-12-20T09:21:20.282Z,12.50
2022-12-20T09:23:48.503Z,13.93
2022-12-20T09:26:16.880Z,15.27
2022-12-20T09:28:44.666Z,14.90
2022-12-20T09:31:16.848Z,18.20
2022-12-20T09:33:44.814Z,16.35
2022-12-20T09:36:18.897Z,16.45
2022-12-20T09:38:46.890Z,16.25
2022-12-20T09:41:23.860Z,17.42
2022-12-20T09:43:51.186Z,17.10
2022-12-20T09:46:18.512Z,18.55
2022-12-20T09:48:47.396Z,17.38
2022-12-20T09:51:38.704Z,17.67
2022-12-20T09:54:24.298Z,15.65
2022-12-20T09:57:09.726Z,15.52
2022-12-20T09:59:45.980Z,15.02
2022-12-20T10:05:17.630Z,16.77
2022-12-20T10:08:01.794Z,15.63
2022-12-20T10:10:34.656Z,14.07
2022-12-20T10:13:24.259Z,13.07
2022-12-20T10:16:26.508Z,11.88
2022-12-20T10:18:56.210Z,13.98
2022-12-20T10:21:28.808Z,13.93
2022-12-20T10:24:05.391Z,11.02
2022-12-20T10:26:33.821Z,9.63
2022-12-20T10:29:00.656Z,8.27
2022-12-20T10:31:28.288Z,8.68
2022-12-20T10:33:55.850Z,7.13
2022-12-20T10:36:22.928Z,5.07
2022-12-20T10:38:53.081Z,5.78
2022-12-20T10:41:23.909Z,6.72
2022-12-20T10:44:02.201Z,4.53
2022-12-20T10:46:59.884Z,4.00
2022-12-20T10:49:35.461Z,3.70
2022-12-20T10:52:22.574Z,3.50
2022-12-20T10:54:49.364Z,4.22
2022-12-20T10:57:24.665Z,4.38
2022-12-20T10:59:54.428Z,4.40
2022-12-20T11:02:39.557Z,4.70
2022-12-20T11:05:11.045Z,4.47
2022-12-20T11:08:17.308Z,4.28
2022-12-20T11:10:38.761Z,4.70
2022-12-20T11:13:06.842Z,4.60
2022-12-20T11:15:36.304Z,4.45
2022-12-20T11:18:13.790Z,4.03
2022-12-20T11:20:49.831Z,4.70
2022-12-20T11:23:43.926Z,4.22
2022-12-20T11:26:35.744Z,3.92
2022-12-20T11:29:26.217Z,4.45
2022-12-20T11:31:53.175Z,4.50
2022-12-20T11:34:38.660Z,5.32
2022-12-20T11:37:20.849Z,4.00
2022-12-20T11:40:16.520Z,5.80
2022-12-20T11:43:04.909Z,4.72
2022-12-20T11:45:37.726Z,4.88
2022-12-20T11:48:17.300Z,5.40
2022-12-20T11:51:17.412Z,5.22
2022-12-20T11:53:54.676Z,3.97
2022-12-20T11:56:43.906Z,4.22
2022-12-20T12:00:06.657Z,4.95
2022-12-20T12:03:08.081Z,5.72
2022-12-20T12:05:43.768Z,4.53
2022-12-20T12:08:19.357Z,4.88
2022-12-20T12:11:04.960Z,4.75
2022-12-20T12:13:36.373Z,3.78
2022-12-20T12:16:30.936Z,4.57
2022-12-20T12:19:00.837Z,4.20
2022-12-20T12:21:51.491Z,4.40
2022-12-20T12:24:36.129Z,3.95
2022-12-20T12:27:03.104Z,4.20
2022-12-20T12:29:33.386Z,4.15
2022-12-20T12:32:20.233Z,6.15
2022-12-20T12:35:08.434Z,5.57
2022-12-20T12:37:35.305Z,3.95
2022-12-20T12:40:10.522Z,7.30
2022-12-20T12:42:54.365Z,5.55
2022-12-20T12:45:28.169Z,5.10
2022-12-20T12:48:00.744Z,5.05
2022-12-20T12:50:32.021Z,4.95
2022-12-20T12:53:09.039Z,4.95
2022-12-20T12:55:38.700Z,4.93
2022-12-20T12:58:23.797Z,5.57
2022-12-20T13:01:01.620Z,4.63
2022-12-20T13:03:46.235Z,4.13
2022-12-20T13:06:25.533Z,4.20
2022-12-20T13:08:58.663Z,5.47
2022-12-20T13:11:41.464Z,4.40
2022-12-20T13:14:18.099Z,5.35
2022-12-20T13:17:10.890Z,4.65
2022-12-20T13:19:36.154Z,5.25
2022-12-20T13:22:12.004Z,3.65
2022-12-20T13:24:39.079Z,5.18
2022-12-20T13:27:26.163Z,5.68
2022-12-20T13:30:01.349Z,5.28
2022-12-20T13:32:47.072Z,5.78
2022-12-20T13:35:26.260Z,4.85
2022-12-20T13:37:56.631Z,4.60
2022-12-20T13:40:45.638Z,6.15
2022-12-20T13:43:20.626Z,6.75
2022-12-20T13:46:11.853Z,6.30
2022-12-20T13:48:38.759Z,5.93
2022-12-20T13:51:10.877Z,5.45
2022-12-20T13:53:39.389Z,5.70
2022-12-20T13:56:28.012Z,8.55
2022-12-20T13:58:56.588Z,5.70
2022-12-20T14:01:25.381Z,5.97
2022-12-20T14:03:53.630Z,6.18
2022-12-20T14:06:26.862Z,6.53
2022-12-20T14:08:54.483Z,6.90
2022-12-20T14:11:30.304Z,7.68
2022-12-20T14:14:02.582Z,7.03
2022-12-20T14:16:32.191Z,6.05
2022-12-20T14:19:07.468Z,5.45
2022-12-20T14:21:39.713Z,6.05
2022-12-20T14:24:15.916Z,6.78
2022-12-20T14:26:48.159Z,6.18
2022-12-20T14:29:29.915Z,6.78
2022-12-20T14:31:57.345Z,6.40
2022-12-20T14:34:30.033Z,7.47
2022-12-20T14:37:32.245Z,7.03
2022-12-20T14:40:05.334Z,7.05
2022-12-20T14:42:37.917Z,7.15
2022-12-20T14:45:10.928Z,8.00
2022-12-20T14:47:46.895Z,6.50
2022-12-20T14:50:53.677Z,7.40
2022-12-20T14:53:29.167Z,6.90
2022-12-20T14:55:56.792Z,7.90
2022-12-20T14:58:32.389Z,7.13
2022-12-20T15:01:18.166Z,9.18
2022-12-20T15:03:51.755Z,7.22
2022-12-20T15:06:37.552Z,9.23
2022-12-20T15:09:05.618Z,8.30
2022-12-20T15:11:35.419Z,9.25
2022-12-20T15:28:34.949Z,8.30
2022-12-20T15:31:04.715Z,10.00
2022-12-20T15:33:34.691Z,8.73
2022-12-20T15:36:01.635Z,8.85
2022-12-20T15:38:54.963Z,8.27
2022-12-20T15:41:27.535Z,10.27
2022-12-20T15:43:58.179Z,9.85
2022-12-20T15:46:25.229Z,9.23
2022-12-20T15:48:53.247Z,9.82
2022-12-20T15:51:35.280Z,9.63
2022-12-20T15:54:04.512Z,10.85
2022-12-20T15:56:31.343Z,10.05
2022-12-20T15:58:58.252Z,11.18
2022-12-20T16:01:40.259Z,11.40
2022-12-20T16:04:14.986Z,10.85
2022-12-20T16:06:43.556Z,10.57
2022-12-20T16:09:10.690Z,10.15
2022-12-20T16:11:37.817Z,9.85
2022-12-20T16:14:05.141Z,10.75
2022-12-20T16:16:35.300Z,10.80
2022-12-20T16:19:04.024Z,13.13
2022-12-20T16:21:36.264Z,12.15
2022-12-20T16:24:03.707Z,11.82
2022-12-20T16:26:30.537Z,10.38
2022-12-20T16:28:57.648Z,9.88
2022-12-20T16:31:36.959Z,9.25
2022-12-20T16:34:13.080Z,9.77
2022-12-20T16:36:40.032Z,8.75
2022-12-20T16:39:07.082Z,8.93
2022-12-20T16:41:34.325Z,10.05
2022-12-20T16:44:02.795Z,11.23
2022-12-20T16:46:32.434Z,10.73
2022-12-20T16:49:00.929Z,10.80
2022-12-20T16:51:44.929Z,11.88
2022-12-20T16:54:19.723Z,12.50
2022-12-20T16:56:47.944Z,12.98
2022-12-20T16:59:21.326Z,12.93
2022-12-20T17:01:51.907Z,14.82
2022-12-20T17:04:20.515Z,13.68
2022-12-20T17:06:48.342Z,13.07
2022-12-20T17:09:18.668Z,12.80
2022-12-20T17:11:45.832Z,12.35
2022-12-20T17:14:13.670Z,11.20
2022-12-20T17:16:41.679Z,13.82
2022-12-20T17:19:10.942Z,12.48
2022-12-20T17:24:23.672Z,12.48
2022-12-20T17:26:50.788Z,12.07
2022-12-20T17:29:18.229Z,13.32
2022-12-20T17:31:46.703Z,11.15
2022-12-20T17:34:30.349Z,9.75
2022-12-20T17:36:58.132Z,11.27
2022-12-20T17:39:25.998Z,10.75
2022-12-20T17:41:54.913Z,8.88
2022-12-20T17:44:27.308Z,11.50
2022-12-20T17:46:56.258Z,10.50
2022-12-20T17:49:24.047Z,12.20
2022-12-20T17:51:51.771Z,10.57
2022-12-20T17:54:21.567Z,11.15
2022-12-20T17:56:49.776Z,12.07
2022-12-20T17:59:17.391Z,13.52
2022-12-20T18:01:45.879Z,11.70
2022-12-20T18:04:15.792Z,11.30
2022-12-20T18:06:45.201Z,11.82
2022-12-20T18:09:22.069Z,12.75
2022-12-20T18:11:49.203Z,10.60
2022-12-20T18:14:16.177Z,10.40
2022-12-20T18:16:43.238Z,12.10
2022-12-20T18:19:16.255Z,12.95
2022-12-20T18:21:43.270Z,12.85
2022-12-20T18:24:14.703Z,12.18
2022-12-20T18:26:42.647Z,11.50
2022-12-20T18:29:10.939Z,13.32
2022-12-20T18:31:38.466Z,12.90
2022-12-20T18:34:05.506Z,12.18
2022-12-20T18:36:37.307Z,18.13
2022-12-20T18:39:07.000Z,13.90
2022-12-20T18:41:35.190Z,14.20
2022-12-20T18:44:08.651Z,16.15
2022-12-20T18:46:35.703Z,15.93
2022-12-20T18:49:03.906Z,14.95
2022-12-20T18:51:36.886Z,18.42
2022-12-20T18:54:07.033Z,16.80
2022-12-20T18:56:37.531Z,17.77
2022-12-20T18:59:11.328Z,17.85
2022-12-20T19:01:39.707Z,15.40
2022-12-20T19:04:08.100Z,15.20
2022-12-20T19:06:36.383Z,14.27
2022-12-20T19:09:06.211Z,14.60
2022-12-20T19:11:33.836Z,14.48
2022-12-20T19:14:03.921Z,14.90
2022-12-20T19:16:33.083Z,14.93
2022-12-20T19:19:04.109Z,16.17
2022-12-20T19:21:33.436Z,16.02
2022-12-20T19:24:05.132Z,17.85
2022-12-20T19:26:32.530Z,19.63
2022-12-20T19:29:00.157Z,18.50
2022-12-20T19:31:30.025Z,17.70
2022-12-20T19:34:03.162Z,17.52
2022-12-20T19:36:40.096Z,18.33
2022-12-20T19:39:13.409Z,18.67
2022-12-20T19:41:40.917Z,19.80
2022-12-20T19:44:09.574Z,18.45
2022-12-20T19:46:36.592Z,16.80
2022-12-20T19:49:03.642Z,18.95
2022-12-20T19:51:30.669Z,17.27
2022-12-20T19:54:00.982Z,16.63
2022-12-20T19:56:30.810Z,16.77
2022-12-20T19:58:57.945Z,17.13
2022-12-20T20:01:27.212Z,15.85
2022-12-20T20:04:00.175Z,18.52
2022-12-20T20:06:28.379Z,18.45
2022-12-20T20:08:59.875Z,19.02
2022-12-20T20:11:27.554Z,22.80
2022-12-20T20:13:55.118Z,21.20
2022-12-20T20:16:23.018Z,21.77
2022-12-20T20:18:50.807Z,22.13
2022-12-20T20:21:21.502Z,16.98
2022-12-20T20:23:51.156Z,16.75
2022-12-20T20:26:21.191Z,16.48
2022-12-20T20:28:48.549Z,16.40
2022-12-20T20:31:17.835Z,16.85
2022-12-20T20:33:45.919Z,20.25
2022-12-20T20:36:15.815Z,20.55
2022-12-20T20:38:42.855Z,19.33
2022-12-20T20:41:09.935Z,19.50
2022-12-20T20:43:38.263Z,19.58
2022-12-20T20:46:07.390Z,19.98
2022-12-20T20:48:35.384Z,19.00
2022-12-20T20:51:02.371Z,19.33
2022-12-20T20:53:33.462Z,17.52
2022-12-20T20:56:05.410Z,15.75
2022-12-20T20:58:33.392Z,18.58
2022-12-20T21:01:02.012Z,15.68
2022-12-20T21:03:31.162Z,15.00
2022-12-20T21:08:45.940Z,14.68
2022-12-20T21:11:13.180Z,15.40
2022-12-20T21:13:40.223Z,17.00
2022-12-20T21:16:20.777Z,17.70
2022-12-20T21:18:56.691Z,18.00
2022-12-20T21:21:25.252Z,19.38
2022-12-20T21:23:53.241Z,18.63
2022-12-20T21:26:21.897Z,20.08
2022-12-20T21:28:48.865Z,22.27
2022-12-20T21:31:19.366Z,24.70
2022-12-20T21:33:46.542Z,25.35
2022-12-20T21:36:16.277Z,25.95
2022-12-20T21:38:50.896Z,28.83
2022-12-20T21:41:19.528Z,31.73
2022-12-20T21:43:46.687Z,33.22
2022-12-20T21:46:13.545Z,31.75
2022-12-20T21:48:42.410Z,30.15
2022-12-20T21:51:11.813Z,31.13
2022-12-20T21:53:44.510Z,29.40
2022-12-20T21:56:11.565Z,28.42
2022-12-20T21:58:38.712Z,28.20
2022-12-20T22:01:08.039Z,28.38
2022-12-20T22:03:36.849Z,27.58
2022-12-20T22:06:04.610Z,28.27
2022-12-20T22:08:32.863Z,26.40
2022-12-20T22:11:06.259Z,25.75
2022-12-20T22:13:40.727Z,26.75
2022-12-20T22:16:11.069Z,25.20
2022-12-20T22:18:38.551Z,26.23
2022-12-20T22:21:08.124Z,27.52
2022-12-20T22:23:35.537Z,26.83
2022-12-20T22:26:03.608Z,27.73
2022-12-20T22:28:30.563Z,27.80
2022-12-20T22:30:57.685Z,28.27
2022-12-20T22:33:24.580Z,26.90
2022-12-20T22:35:51.484Z,26.17
2022-12-20T22:38:18.364Z,28.95
2022-12-20T22:40:45.213Z,28.42
2022-12-20T22:43:12.055Z,27.30
2022-12-20T22:45:38.911Z,28.05
2022-12-20T22:48:07.231Z,25.83
2022-12-20T22:50:34.110Z,24.05
2022-12-20T22:53:00.945Z,24.17
2022-12-20T22:55:27.883Z,24.45
2022-12-20T22:57:54.844Z,22.92
2022-12-20T23:00:21.824Z,22.98
2022-12-20T23:02:48.780Z,23.75
2022-12-20T23:05:15.752Z,23.33
2022-12-20T23:07:43.165Z,24.23
2022-12-20T23:10:30.628Z,22.58
2022-12-20T23:13:16.000Z,22.75
2022-12-20T23:15:42.989Z,22.45
2022-12-20T23:18:09.998Z,23.08
2022-12-20T23:20:55.169Z,23.98
2022-12-20T23:23:22.140Z,24.27
2022-12-20T23:25:49.051Z,24.48
2022-12-20T23:28:16.259Z,23.42
2022-12-20T23:30:43.200Z,20.50
2022-12-20T23:33:09.997Z,22.55
2022-12-20T23:35:37.063Z,23.08
2022-12-20T23:38:04.123Z,23.77
2022-12-20T23:40:31.047Z,24.67
2022-12-20T23:42:57.969Z,23.50
2022-12-20T23:45:24.781Z,25.38
2022-12-20T23:47:51.614Z,24.48
2022-12-20T23:50:18.507Z,25.40
2022-12-20T23:52:45.910Z,27.20
2022-12-20T23:55:13.797Z,25.77
2022-12-20T23:57:40.642Z,25.77
